createdAt,value
2018-04-19T00:02:22.070Z,26.90
2018-04-19T00:04:49.545Z,25.80
2018-04-19T00:07:17.030Z,26.57
2018-04-19T00:09:44.506Z,25.47
2018-04-19T00:12:11.973Z,24.80
2018-04-19T00:14:39.462Z,25.70
2018-04-19T00:17:06.920Z,23.90
2018-04-19T00:19:34.397Z,23.03
2018-04-19T00:22:01.862Z,25.00
2018-04-19T00:24:29.346Z,24.03
2018-04-19T00:26:56.815Z,22.70
2018-04-19T00:29:24.288Z,23.93
2018-04-19T00:31:52.521Z,25.60
2018-04-19T00:34:20.014Z,23.77
2018-04-19T00:36:47.478Z,23.70
2018-04-19T00:39:14.950Z,26.37
2018-04-19T00:41:43.202Z,27.53
2018-04-19T00:44:11.698Z,28.20
2018-04-19T00:46:39.174Z,25.50
2018-04-19T00:49:07.421Z,27.03
2018-04-19T00:51:34.898Z,31.20
2018-04-19T00:54:03.129Z,30.80
2018-04-19T00:56:30.600Z,29.10
2018-04-19T00:58:58.061Z,28.43
2018-04-19T01:01:25.541Z,26.43
2018-04-19T01:03:53.010Z,31.00
2018-04-19T01:06:21.273Z,27.73
2018-04-19T01:08:48.738Z,25.63
2018-04-19T01:11:16.217Z,29.30
2018-04-19T01:13:43.706Z,28.20
2018-04-19T01:16:11.178Z,27.90
2018-04-19T01:18:38.654Z,26.30
2018-04-19T01:21:06.134Z,25.97
2018-04-19T01:23:34.369Z,26.00
2018-04-19T01:26:01.850Z,26.90
2018-04-19T01:28:29.335Z,25.40
2018-04-19T01:30:57.576Z,24.53
2018-04-19T01:33:25.049Z,24.90
2018-04-19T01:36:04.377Z,27.17
2018-04-19T01:38:31.903Z,27.80
2018-04-19T01:40:59.333Z,26.10
2018-04-19T01:43:26.825Z,31.20
2018-04-19T01:45:54.299Z,26.60
2018-04-19T01:48:21.777Z,30.03
2018-04-19T01:50:49.253Z,27.60
2018-04-19T01:53:18.321Z,29.97
2018-04-19T01:55:45.794Z,27.77
2018-04-19T01:58:13.266Z,28.70
2018-04-19T02:00:41.518Z,28.30
2018-04-19T02:03:08.982Z,26.63
2018-04-19T02:05:36.457Z,27.90
2018-04-19T02:08:04.698Z,24.30
2018-04-19T02:10:32.173Z,24.93
2018-04-19T02:12:59.649Z,28.10
2018-04-19T02:15:27.902Z,26.07
2018-04-19T02:17:55.373Z,25.50
2018-04-19T02:20:22.838Z,24.40
2018-04-19T02:22:51.081Z,25.90
2018-04-19T02:25:18.549Z,24.97
2018-04-19T02:27:46.053Z,24.37
2018-04-19T02:30:14.300Z,22.77
2018-04-19T02:32:41.784Z,20.87
2018-04-19T02:37:43.651Z,21.80
2018-04-19T02:40:11.089Z,21.20
2018-04-19T02:42:38.572Z,21.30
2018-04-19T02:45:06.796Z,23.57
2018-04-19T02:47:34.276Z,22.50
2018-04-19T02:50:01.742Z,24.70
2018-04-19T02:52:29.232Z,20.33
2018-04-19T02:54:57.469Z,20.40
2018-04-19T02:57:24.947Z,20.50
2018-04-19T02:59:52.416Z,22.37
2018-04-19T03:02:20.658Z,23.50
2018-04-19T03:04:48.121Z,20.97
2018-04-19T03:07:15.645Z,22.10
2018-04-19T03:09:43.104Z,21.80
2018-04-19T03:12:10.594Z,21.80
2018-04-19T03:14:38.057Z,20.87
2018-04-19T03:17:05.536Z,21.47
2018-04-19T03:19:33.770Z,23.50
2018-04-19T03:22:01.264Z,21.37
2018-04-19T03:24:28.724Z,21.50
2018-04-19T03:26:56.968Z,21.03
2018-04-19T03:29:24.427Z,21.80
2018-04-19T03:31:51.905Z,22.67
2018-04-19T03:34:19.364Z,23.33
2018-04-19T03:36:46.845Z,22.07
2018-04-19T03:39:15.097Z,21.13
2018-04-19T03:41:42.572Z,22.73
2018-04-19T03:44:10.799Z,21.03
2018-04-19T03:46:38.276Z,20.57
2018-04-19T03:49:05.741Z,22.50
2018-04-19T03:51:33.229Z,20.20
2018-04-19T03:54:00.696Z,21.60
2018-04-19T03:56:28.929Z,23.27
2018-04-19T03:58:56.401Z,23.60
2018-04-19T04:01:23.878Z,24.13
2018-04-19T04:03:52.116Z,24.23
2018-04-19T04:06:19.572Z,24.23
2018-04-19T04:08:47.101Z,23.97
2018-04-19T04:11:14.520Z,23.67
2018-04-19T04:13:42.008Z,27.00
2018-04-19T04:16:09.464Z,23.97
2018-04-19T04:18:48.850Z,25.23
2018-04-19T04:21:18.226Z,27.00
2018-04-19T04:23:51.640Z,28.10
2018-04-19T04:26:19.114Z,28.60
2018-04-19T04:28:46.589Z,28.57
2018-04-19T04:31:14.116Z,28.47
2018-04-19T04:33:42.304Z,26.43
2018-04-19T04:36:10.537Z,28.27
2018-04-19T04:38:38.014Z,25.70
2018-04-19T04:41:05.481Z,26.67
2018-04-19T04:43:33.024Z,26.97
2018-04-19T04:46:00.488Z,27.67
2018-04-19T04:48:27.969Z,27.03
2018-04-19T04:50:55.448Z,29.90
2018-04-19T04:53:22.917Z,28.73
2018-04-19T04:55:51.158Z,26.17
2018-04-19T04:58:18.637Z,28.60
2018-04-19T05:00:46.096Z,24.60
2018-04-19T05:03:13.564Z,27.07
2018-04-19T05:05:41.044Z,26.53
2018-04-19T05:08:09.391Z,29.13
2018-04-19T05:10:36.746Z,28.30
2018-04-19T05:13:04.355Z,28.50
2018-04-19T05:15:31.828Z,28.13
2018-04-19T05:17:59.294Z,27.43
2018-04-19T05:20:26.830Z,25.43
2018-04-19T05:22:54.253Z,26.53
2018-04-19T05:25:21.746Z,28.90
2018-04-19T05:27:49.198Z,27.37
2018-04-19T05:30:16.686Z,28.47
2018-04-19T05:32:44.170Z,26.20
2018-04-19T05:35:11.634Z,27.90
2018-04-19T05:37:39.096Z,27.10
2018-04-19T05:40:06.580Z,27.23
2018-04-19T05:42:54.656Z,30.43
2018-04-19T05:45:22.144Z,33.43
2018-04-19T05:47:50.383Z,34.23
2018-04-19T05:50:18.660Z,29.07
2018-04-19T05:52:46.133Z,29.60
2018-04-19T05:55:13.604Z,30.60
2018-04-19T05:57:41.069Z,33.37
2018-04-19T06:00:08.537Z,33.60
2018-04-19T06:02:36.004Z,34.80
2018-04-19T06:05:03.497Z,36.47
2018-04-19T06:07:30.975Z,33.07
2018-04-19T06:09:58.453Z,32.00
2018-04-19T06:12:25.915Z,34.47
2018-04-19T06:14:53.398Z,36.73
2018-04-19T06:17:20.859Z,32.77
2018-04-19T06:19:49.100Z,33.07
2018-04-19T06:22:16.565Z,34.73
2018-04-19T06:24:44.038Z,35.33
2018-04-19T06:27:11.491Z,31.60
2018-04-19T06:29:38.976Z,29.73
2018-04-19T06:32:07.205Z,30.70
2018-04-19T06:34:34.680Z,29.43
2018-04-19T06:37:02.149Z,30.03
2018-04-19T06:39:29.619Z,31.03
2018-04-19T06:41:57.085Z,29.80
2018-04-19T06:44:25.332Z,28.67
2018-04-19T06:46:52.813Z,26.87
2018-04-19T06:49:21.058Z,28.67
2018-04-19T06:51:48.529Z,27.73
2018-04-19T06:54:16.000Z,27.87
2018-04-19T06:56:43.488Z,26.50
2018-04-19T06:59:11.732Z,27.67
2018-04-19T07:01:39.201Z,26.37
2018-04-19T07:04:06.668Z,26.33
2018-04-19T07:06:34.978Z,26.67
2018-04-19T07:09:03.223Z,25.50
2018-04-19T07:11:31.456Z,23.57
2018-04-19T07:13:58.923Z,24.50
2018-04-19T07:16:26.404Z,25.30
2018-04-19T07:18:53.878Z,21.87
2018-04-19T07:21:22.116Z,25.10
2018-04-19T07:23:49.601Z,23.90
2018-04-19T07:26:17.064Z,24.77
2018-04-19T07:28:45.292Z,24.57
2018-04-19T07:31:12.765Z,24.00
2018-04-19T07:33:40.228Z,23.87
2018-04-19T07:36:07.737Z,22.97
2018-04-19T07:38:35.981Z,24.70
2018-04-19T07:41:03.461Z,24.47
2018-04-19T07:43:31.696Z,22.87
2018-04-19T07:45:59.173Z,25.40
2018-04-19T07:48:26.662Z,23.90
2018-04-19T07:50:54.895Z,22.77
2018-04-19T07:53:22.649Z,25.50
2018-04-19T07:55:50.128Z,25.80
2018-04-19T07:58:17.596Z,25.70
2018-04-19T08:00:45.064Z,27.67
2018-04-19T08:03:13.300Z,28.17
2018-04-19T08:05:40.772Z,26.47
2018-04-19T08:08:08.255Z,28.10
2018-04-19T08:10:35.727Z,28.87
2018-04-19T08:13:04.245Z,28.53
2018-04-19T08:15:31.716Z,31.60
2018-04-19T08:17:59.176Z,28.90
2018-04-19T08:20:26.653Z,29.50
2018-04-19T08:22:54.113Z,33.13
2018-04-19T08:25:21.592Z,30.77
2018-04-19T08:27:49.833Z,32.87
2018-04-19T08:30:17.319Z,30.27
2018-04-19T08:32:44.780Z,29.77
2018-04-19T08:35:12.266Z,30.30
2018-04-19T08:37:40.494Z,29.90
2018-04-19T08:40:08.326Z,27.60
2018-04-19T08:42:35.785Z,29.43
2018-04-19T08:45:03.260Z,28.20
2018-04-19T08:47:30.720Z,28.70
2018-04-19T08:49:58.192Z,29.20
2018-04-19T08:52:25.660Z,27.70
2018-04-19T08:54:53.137Z,30.50
2018-04-19T08:57:20.601Z,28.23
2018-04-19T08:59:49.135Z,32.33
2018-04-19T09:02:16.600Z,28.40
2018-04-19T09:04:44.096Z,30.20
2018-04-19T09:07:11.563Z,28.40
2018-04-19T09:09:39.820Z,29.00
2018-04-19T09:12:07.288Z,27.03
2018-04-19T09:14:34.758Z,27.07
2018-04-19T09:17:03.001Z,26.50
2018-04-19T09:19:30.483Z,24.47
2018-04-19T09:21:57.943Z,26.57
2018-04-19T09:24:26.182Z,23.57
2018-04-19T09:26:53.664Z,21.80
2018-04-19T09:29:21.140Z,24.70
2018-04-19T09:31:48.605Z,24.90
2018-04-19T09:34:16.896Z,23.57
2018-04-19T09:36:44.325Z,23.23
2018-04-19T09:39:11.797Z,24.80
2018-04-19T09:41:40.041Z,22.80
2018-04-19T09:44:07.512Z,21.70
2018-04-19T09:46:35.001Z,22.87
2018-04-19T09:49:02.453Z,21.50
2018-04-19T09:51:30.693Z,22.47
2018-04-19T09:53:58.261Z,23.37
2018-04-19T09:56:25.635Z,23.33
2018-04-19T09:59:05.722Z,20.63
2018-04-19T10:01:38.813Z,20.40
2018-04-19T10:04:06.292Z,21.30
2018-04-19T10:06:33.767Z,24.13
2018-04-19T10:09:01.247Z,22.83
2018-04-19T10:11:28.725Z,24.70
2018-04-19T10:13:56.962Z,24.47
2018-04-19T10:16:24.452Z,24.80
2018-04-19T10:18:51.912Z,25.80
2018-04-19T10:21:20.203Z,22.67
2018-04-19T10:23:47.636Z,21.53
2018-04-19T10:26:15.108Z,24.20
2018-04-19T10:28:43.338Z,22.40
2018-04-19T10:31:10.810Z,23.30
2018-04-19T10:33:38.273Z,23.53
2018-04-19T10:36:05.744Z,22.60
2018-04-19T10:38:33.219Z,20.17
2018-04-19T10:41:00.682Z,22.50
2018-04-19T10:43:28.997Z,24.13
2018-04-19T10:45:56.475Z,25.13
2018-04-19T10:48:23.949Z,25.70
2018-04-19T10:50:51.415Z,24.57
2018-04-19T10:53:18.881Z,22.10
2018-04-19T10:55:46.354Z,22.40
2018-04-19T10:58:14.586Z,21.00
2018-04-19T11:00:43.072Z,21.83
2018-04-19T11:03:11.160Z,21.50
2018-04-19T11:05:38.698Z,22.00
2018-04-19T11:08:06.164Z,21.80
2018-04-19T11:10:33.644Z,19.43
2018-04-19T11:13:01.463Z,18.90
2018-04-19T11:15:28.937Z,16.70
2018-04-19T11:17:56.414Z,18.90
2018-04-19T11:20:23.881Z,17.30
2018-04-19T11:22:51.354Z,19.20
2018-04-19T11:25:19.275Z,17.83
2018-04-19T11:27:46.744Z,15.43
2018-04-19T11:30:14.216Z,15.60
2018-04-19T11:32:41.691Z,18.13
2018-04-19T11:35:09.171Z,16.47
2018-04-19T11:37:37.404Z,17.20
2018-04-19T11:40:05.647Z,17.70
2018-04-19T11:42:33.171Z,16.23
2018-04-19T11:45:00.597Z,15.47
2018-04-19T11:47:28.069Z,17.27
2018-04-19T11:49:55.533Z,16.90
2018-04-19T11:52:23.004Z,15.73
2018-04-19T11:54:50.467Z,15.97
2018-04-19T11:57:18.709Z,15.70
2018-04-19T11:59:46.168Z,15.67
2018-04-19T12:02:13.662Z,16.40
2018-04-19T12:04:41.116Z,17.23
2018-04-19T12:07:08.593Z,17.13
2018-04-19T12:09:36.822Z,17.10
2018-04-19T12:12:04.292Z,16.93
2018-04-19T12:14:31.749Z,18.53
2018-04-19T12:16:59.220Z,14.33
2018-04-19T12:19:26.683Z,14.77
2018-04-19T12:21:54.164Z,17.70
2018-04-19T12:24:22.405Z,17.30
2018-04-19T12:26:49.892Z,16.30
2018-04-19T12:29:18.124Z,21.43
2018-04-19T12:31:45.603Z,19.30
2018-04-19T12:34:13.065Z,18.33
2018-04-19T12:36:40.546Z,19.17
2018-04-19T12:39:08.780Z,19.13
2018-04-19T12:41:36.265Z,18.67
2018-04-19T12:44:03.726Z,19.17
2018-04-19T12:46:31.201Z,18.67
2018-04-19T12:48:59.433Z,18.23
2018-04-19T12:51:26.900Z,17.30
2018-04-19T12:53:54.364Z,19.47
2018-04-19T12:56:21.844Z,19.43
2018-04-19T12:58:49.315Z,20.30
2018-04-19T13:01:17.552Z,20.33
2018-04-19T13:03:45.022Z,18.70
2018-04-19T13:06:12.503Z,19.97
2018-04-19T13:08:40.760Z,22.00
2018-04-19T13:11:08.239Z,20.60
2018-04-19T13:13:36.477Z,21.40
2018-04-19T13:16:03.977Z,20.10
2018-04-19T13:18:32.207Z,21.67
2018-04-19T13:21:02.233Z,22.57
2018-04-19T13:23:29.704Z,22.80
2018-04-19T13:25:57.189Z,21.37
2018-04-19T13:28:25.464Z,21.87
2018-04-19T13:30:53.020Z,23.73
2018-04-19T13:33:22.368Z,21.50
2018-04-19T13:35:50.815Z,21.40
2018-04-19T13:38:20.070Z,18.93
2018-04-19T13:40:47.650Z,15.50
2018-04-19T13:43:15.932Z,14.60
2018-04-19T13:45:43.457Z,16.10
2018-04-19T13:48:11.849Z,15.27
2018-04-19T13:50:39.454Z,16.80
2018-04-19T13:53:07.689Z,16.57
2018-04-19T13:55:35.156Z,16.27
2018-04-19T13:58:02.638Z,18.10
2018-04-19T14:00:30.145Z,19.27
2018-04-19T14:02:57.642Z,21.80
2018-04-19T14:05:25.100Z,24.17
2018-04-19T14:07:52.581Z,21.03
2018-04-19T14:10:20.075Z,23.53
2018-04-19T14:12:47.549Z,19.83
2018-04-19T14:15:15.008Z,19.80
2018-04-19T14:17:42.491Z,19.57
2018-04-19T14:20:09.962Z,18.97
2018-04-19T14:22:37.432Z,19.50
2018-04-19T14:25:05.680Z,21.07
2018-04-19T14:27:33.166Z,19.33
2018-04-19T14:30:00.654Z,18.43
2018-04-19T14:32:28.532Z,17.87
2018-04-19T14:34:55.992Z,18.17
2018-04-19T14:37:23.484Z,15.43
2018-04-19T14:39:50.956Z,15.07
2018-04-19T14:42:18.431Z,16.43
2018-04-19T14:44:46.663Z,16.37
2018-04-19T14:47:14.147Z,15.70
2018-04-19T14:49:41.623Z,16.23
2018-04-19T14:52:09.121Z,16.50
2018-04-19T14:54:36.589Z,17.67
2018-04-19T14:57:04.097Z,16.33
2018-04-19T14:59:31.555Z,14.97
2018-04-19T15:01:59.040Z,18.20
2018-04-19T15:04:26.532Z,15.87
2018-04-19T15:06:54.021Z,18.53
2018-04-19T15:09:21.484Z,17.70
2018-04-19T15:11:48.953Z,16.93
2018-04-19T15:14:17.209Z,17.90
2018-04-19T15:16:44.696Z,20.90
2018-04-19T15:19:12.945Z,19.37
2018-04-19T15:21:40.448Z,22.00
2018-04-19T15:24:07.925Z,19.57
2018-04-19T15:26:35.410Z,17.33
2018-04-19T15:29:02.970Z,20.30
2018-04-19T15:31:30.475Z,20.97
2018-04-19T15:33:58.717Z,21.47
2018-04-19T15:36:26.948Z,22.20
2018-04-19T15:38:54.439Z,21.07
2018-04-19T15:41:21.929Z,21.80
2018-04-19T15:43:49.477Z,21.37
2018-04-19T15:46:16.891Z,21.03
2018-04-19T15:48:44.373Z,19.70
2018-04-19T15:51:11.859Z,18.80
2018-04-19T15:53:39.341Z,18.00
2018-04-19T15:56:07.592Z,17.47
2018-04-19T15:58:36.385Z,18.63
2018-04-19T16:01:04.779Z,16.40
2018-04-19T16:03:32.256Z,17.10
2018-04-19T16:06:00.489Z,17.90
2018-04-19T16:08:27.965Z,18.17
2018-04-19T16:10:55.436Z,16.80
2018-04-19T16:13:23.685Z,19.27
2018-04-19T16:15:51.161Z,19.87
2018-04-19T16:18:18.629Z,19.10
2018-04-19T16:20:46.864Z,18.63
2018-04-19T16:23:14.348Z,17.50
2018-04-19T16:25:41.829Z,18.17
2018-04-19T16:28:10.133Z,18.60
2018-04-19T16:30:37.561Z,19.30
2018-04-19T16:33:05.816Z,18.20
2018-04-19T16:35:33.332Z,19.10
2018-04-19T16:38:00.858Z,16.60
2018-04-19T16:40:28.307Z,18.17
2018-04-19T16:42:56.486Z,16.10
2018-04-19T16:45:24.738Z,17.33
2018-04-19T16:47:52.221Z,16.27
2018-04-19T16:50:19.693Z,17.90
2018-04-19T16:52:47.940Z,15.40
2018-04-19T16:55:15.418Z,17.00
2018-04-19T16:57:43.676Z,17.10
2018-04-19T17:00:11.153Z,16.00
2018-04-19T17:02:39.397Z,14.07
2018-04-19T17:05:06.878Z,16.03
2018-04-19T17:07:34.367Z,15.70
2018-04-19T17:10:01.849Z,14.43
2018-04-19T17:12:29.338Z,14.10
2018-04-19T17:14:56.805Z,15.67
2018-04-19T17:17:24.292Z,12.90
2018-04-19T17:19:51.807Z,14.13
2018-04-19T17:22:19.312Z,13.97
2018-04-19T17:24:47.550Z,13.60
2018-04-19T17:27:15.057Z,13.83
2018-04-19T17:29:42.521Z,15.10
2018-04-19T17:32:10.016Z,14.87
2018-04-19T17:34:45.545Z,17.07
2018-04-19T17:37:13.866Z,15.50
2018-04-19T17:39:41.324Z,13.37
2018-04-19T17:42:08.863Z,14.23
2018-04-19T17:44:36.544Z,14.87
2018-04-19T17:47:04.021Z,16.10
2018-04-19T17:49:32.287Z,16.90
2018-04-19T17:51:59.761Z,16.43
2018-04-19T17:54:27.999Z,15.50
2018-04-19T17:56:55.461Z,16.53
2018-04-19T17:59:22.945Z,16.40
2018-04-19T18:01:50.461Z,16.20
2018-04-19T18:04:17.933Z,16.60
2018-04-19T18:06:45.397Z,16.17
2018-04-19T18:09:12.933Z,15.47
2018-04-19T18:11:40.404Z,17.33
2018-04-19T18:14:07.945Z,15.40
2018-04-19T18:16:35.428Z,16.17
2018-04-19T18:19:02.909Z,15.97
2018-04-19T18:21:30.376Z,15.87
2018-04-19T18:23:57.867Z,17.27
2018-04-19T18:26:25.337Z,14.87
2018-04-19T18:28:52.812Z,15.03
2018-04-19T18:31:20.285Z,16.47
2018-04-19T18:33:47.770Z,15.43
2018-04-19T18:36:15.240Z,16.60
2018-04-19T18:38:43.481Z,14.30
2018-04-19T18:41:10.956Z,18.20
2018-04-19T18:43:38.436Z,16.80
2018-04-19T18:46:06.689Z,16.70
2018-04-19T18:48:34.179Z,16.50
2018-04-19T18:51:02.400Z,18.50
2018-04-19T18:53:29.888Z,20.20
2018-04-19T18:55:57.360Z,15.93
2018-04-19T18:58:24.833Z,16.40
2018-04-19T19:00:53.075Z,16.37
2018-04-19T19:03:20.545Z,16.03
2018-04-19T19:05:48.029Z,15.93
2018-04-19T19:08:16.273Z,13.73
2018-04-19T19:10:43.753Z,15.17
2018-04-19T19:13:12.004Z,14.40
2018-04-19T19:18:59.801Z,12.70
2018-04-19T19:21:27.267Z,13.43
2018-04-19T19:23:54.813Z,12.03
2018-04-19T19:26:22.234Z,12.67
2018-04-19T19:28:49.712Z,12.40
2018-04-19T19:31:17.231Z,12.17
2018-04-19T19:33:44.706Z,11.90
2018-04-19T19:36:12.173Z,11.53
2018-04-19T19:38:39.640Z,13.80
2018-04-19T19:41:07.115Z,13.70
2018-04-19T19:43:35.349Z,13.60
2018-04-19T19:46:02.902Z,12.53
2018-04-19T19:48:30.364Z,13.93
2018-04-19T19:50:57.833Z,14.17
2018-04-19T19:53:25.319Z,13.67
2018-04-19T19:55:52.791Z,12.03
2018-04-19T19:58:21.032Z,16.40
2018-04-19T20:00:48.496Z,15.50
2018-04-19T20:03:15.988Z,14.73
2018-04-19T20:05:44.229Z,15.30
2018-04-19T20:08:11.686Z,14.17
2018-04-19T20:10:39.160Z,15.60
2018-04-19T20:13:06.646Z,16.43
2018-04-19T20:15:35.251Z,14.70
2018-04-19T20:18:02.745Z,17.00
2018-04-19T20:20:30.221Z,15.47
2018-04-19T20:22:57.689Z,14.63
2018-04-19T20:25:25.928Z,16.87
2018-04-19T20:27:53.395Z,16.60
2018-04-19T20:30:20.877Z,15.60
2018-04-19T20:32:48.346Z,17.37
2018-04-19T20:35:16.579Z,15.43
2018-04-19T20:37:44.061Z,17.03
2018-04-19T20:40:11.546Z,16.50
2018-04-19T20:42:39.776Z,16.90
2018-04-19T20:45:07.257Z,18.23
2018-04-19T20:47:34.740Z,18.07
2018-04-19T20:50:02.986Z,18.17
2018-04-19T20:52:30.456Z,16.77
2018-04-19T20:54:57.952Z,17.33
2018-04-19T20:57:25.409Z,17.80
2018-04-19T20:59:53.195Z,16.40
2018-04-19T21:02:20.675Z,20.70
2018-04-19T21:04:48.161Z,18.80
2018-04-19T21:07:15.720Z,18.47
2018-04-19T21:09:43.201Z,17.40
2018-04-19T21:12:11.428Z,18.73
2018-04-19T21:14:38.907Z,16.33
2018-04-19T21:17:06.396Z,17.00
2018-04-19T21:19:34.094Z,17.87
2018-04-19T21:22:02.380Z,18.30
2018-04-19T21:24:29.868Z,17.73
2018-04-19T21:26:57.363Z,18.13
2018-04-19T21:29:24.836Z,16.90
2018-04-19T21:31:52.303Z,17.33
2018-04-19T21:34:19.782Z,18.50
2018-04-19T21:36:47.250Z,17.90
2018-04-19T21:39:14.730Z,19.43
2018-04-19T21:41:42.959Z,18.10
2018-04-19T21:44:10.431Z,18.40
2018-04-19T21:46:37.901Z,17.00
2018-04-19T21:49:05.397Z,19.00
2018-04-19T21:51:33.635Z,18.50
2018-04-19T21:54:01.121Z,19.00
2018-04-19T21:56:29.360Z,18.23
2018-04-19T21:58:56.831Z,17.30
2018-04-19T22:01:24.294Z,17.90
2018-04-19T22:03:51.777Z,18.17
2018-04-19T22:06:20.017Z,18.07
2018-04-19T22:08:47.483Z,17.90
2018-04-19T22:11:14.956Z,18.07
2018-04-19T22:13:43.192Z,20.37
2018-04-19T22:16:10.674Z,20.50
2018-04-19T22:18:38.132Z,19.57
2018-04-19T22:21:05.617Z,17.77
2018-04-19T22:23:33.853Z,19.87
2018-04-19T22:26:01.320Z,19.63
2018-04-19T22:28:28.794Z,18.50
2018-04-19T22:30:56.263Z,18.53
2018-04-19T22:33:23.728Z,18.80
2018-04-19T22:35:51.976Z,18.93
2018-04-19T22:38:20.202Z,19.50
2018-04-19T22:40:47.684Z,18.70
2018-04-19T22:43:15.374Z,19.17
2018-04-19T22:45:42.845Z,19.13
2018-04-19T22:48:10.315Z,17.33
2018-04-19T22:50:37.785Z,19.70
2018-04-19T22:53:06.016Z,17.97
2018-04-19T22:55:33.494Z,17.70
2018-04-19T22:58:00.982Z,18.27
2018-04-19T23:00:29.260Z,17.50
2018-04-19T23:02:57.496Z,17.90
2018-04-19T23:05:24.977Z,16.10
2018-04-19T23:07:52.438Z,15.97
2018-04-19T23:10:20.676Z,16.80
2018-04-19T23:12:48.911Z,15.23
2018-04-19T23:15:16.389Z,15.30
2018-04-19T23:17:43.859Z,14.87
2018-04-19T23:20:11.325Z,15.67
2018-04-19T23:22:38.789Z,15.43
2018-04-19T23:25:06.324Z,15.03
2018-04-19T23:27:33.744Z,17.17
2018-04-19T23:30:01.230Z,17.03
2018-04-19T23:32:28.700Z,15.80
2018-04-19T23:34:56.167Z,16.30
2018-04-19T23:37:23.632Z,16.17
2018-04-19T23:39:51.176Z,15.53
2018-04-19T23:42:18.638Z,15.17
2018-04-19T23:44:46.116Z,15.67
2018-04-19T23:47:13.584Z,17.57
2018-04-19T23:49:41.061Z,16.60
2018-04-19T23:52:08.535Z,16.10
2018-04-19T23:54:36.776Z,15.13
2018-04-19T23:57:04.257Z,15.90
2018-04-19T23:59:31.753Z,17.70
